Time;durP1;ratioP1;P1;durP2;ratioP2;P2;SDS_P1;SDS_P2;PMS_P1;PMS_P2;Temp;Humidity;BMP_temperature;BMP_pressure;BME280_temperature;BME280_humidity;BME280_pressure;Samples;Min_cycle;Max_cycle;Signal;HPM_P1;HPM_P2
2021/05/06 05:31:13;;;;;;;5.30;2.42;;;;;;;6.48;65.72;99331.94;1725996;78;26890;-61
2021/05/06 05:34:01;;;;;;;;;;;;;;;;;;;;;
2021/05/06 05:36:33;;;;;;;7.03;2.40;;;;;;;6.63;65.50;99340.19;1769637;79;26120;-60
2021/05/06 05:39:13;;;;;;;9.05;2.40;;;;;;;6.65;64.50;99338.77;1769672;79;25917;-60
2021/05/06 05:54:53;;;;;;;9.08;2.30;;;;;;;7.03;62.12;99345.11;1756998;80;25677;-59
2021/05/06 05:57:20;;;;;;;12.45;2.77;;;;;;;7.15;63.37;99350.45;1757560;80;25699;-59
2021/05/06 05:59:47;;;;;;;6.53;2.08;;;;;;;7.27;63.53;99353.34;1758140;80;25573;-59
2021/05/06 06:02:14;;;;;;;9.83;2.60;;;;;;;7.41;63.38;99350.03;1754786;80;25714;-59
2021/05/06 06:04:41;;;;;;;9.93;2.72;;;;;;;7.54;62.10;99359.08;1731148;80;28130;-67
2021/05/06 06:07:07;;;;;;;9.65;2.50;;;;;;;7.60;61.77;99355.16;1764090;80;25635;-65
2021/05/06 06:09:35;;;;;;;9.10;3.08;;;;;;;7.62;60.53;99326.59;1763621;80;25659;-67
2021/05/06 06:12:03;;;;;;;9.65;2.45;;;;;;;7.65;60.87;99369.03;1765525;80;25660;-67
2021/05/06 06:14:42;;;;;;;5.83;2.50;;;;;;;7.66;60.87;99363.34;1737834;80;25686;-67
2021/05/06 06:16:59;;;;;;;6.22;2.25;;;;;;;7.65;60.53;99360.39;1768220;79;29707;-66
2021/05/06 06:19:31;;;;;;;9.08;3.10;;;;;;;7.70;61.54;99364.86;1761584;80;25648;-67
2021/05/06 06:22:01;;;;;;;7.15;2.40;;;;;;;7.86;59.56;99359.25;1764523;80;26323;-64
2021/05/06 06:24:23;;;;;;;10.40;2.33;;;;;;;7.90;59.19;99351.38;1756598;80;25560;-66
2021/05/06 06:26:49;;;;;;;9.58;2.62;;;;;;;7.96;58.55;99367.60;1756686;80;25853;-66
2021/05/06 06:29:18;;;;;;;10.35;2.72;;;;;;;8.11;59.90;99364.23;1760159;80;25755;-66
2021/05/06 06:34:21;;;;;;;9.20;2.70;;;;;;;8.39;57.76;99372.80;1811278;75;34754;-66
2021/05/06 06:36:48;;;;;;;5.83;2.77;;;;;;;8.39;59.30;99373.63;1804371;77;26503;-66
2021/05/06 06:39:16;;;;;;;8.35;2.00;;;;;;;8.50;56.45;99384.11;1769525;79;26045;-66
2021/05/06 06:41:44;;;;;;;7.90;2.65;;;;;;;8.59;57.49;99361.98;1749582;80;25763;-66
2021/05/06 06:44:14;;;;;;;7.75;2.20;;;;;;;8.72;57.80;99375.07;1738206;80;26501;-65
2021/05/06 06:46:41;;;;;;;7.25;2.75;;;;;;;8.82;57.16;99372.05;1745734;79;32447;-66
2021/05/06 06:49:10;;;;;;;5.83;2.05;;;;;;;8.96;56.36;99378.60;1748418;79;25697;-66
2021/05/06 06:51:37;;;;;;;8.70;2.60;;;;;;;8.98;52.78;99392.55;1748402;79;25727;-65
2021/05/06 06:54:05;;;;;;;8.90;3.45;;;;;;;9.10;55.82;99391.33;1750593;80;25639;-65
2021/05/06 06:56:32;;;;;;;10.32;3.27;;;;;;;9.15;54.64;99390.38;1739316;80;25683;-65
2021/05/06 06:58:59;;;;;;;6.78;2.40;;;;;;;9.18;54.03;99406.47;1748697;79;25768;-65
2021/05/06 07:01:25;;;;;;;7.08;2.75;;;;;;;9.24;55.44;99384.96;1745958;79;26218;-66
2021/05/06 07:03:52;;;;;;;9.53;2.60;;;;;;;9.42;55.56;99392.45;1746115;79;25879;-65
2021/05/06 07:06:19;;;;;;;6.25;2.37;;;;;;;9.66;54.48;99392.66;1742649;79;25708;-63
2021/05/06 07:08:47;;;;;;;4.10;2.58;;;;;;;9.85;53.86;99382.02;1743223;79;25785;-64
2021/05/06 07:11:14;;;;;;;6.12;2.62;;;;;;;10.00;54.27;99399.02;1743241;79;25699;-60
2021/05/06 07:13:41;;;;;;;8.95;3.12;;;;;;;10.23;53.99;99416.28;1748701;79;25710;-59
2021/05/06 07:16:08;;;;;;;7.67;2.12;;;;;;;10.36;51.04;99386.89;1743003;79;25930;-58
2021/05/06 07:18:36;;;;;;;7.95;2.65;;;;;;;10.47;53.03;99406.20;1746945;79;25763;-58
2021/05/06 07:21:05;;;;;;;6.50;2.35;;;;;;;10.69;52.94;99405.64;1748526;79;25626;-58
2021/05/06 07:23:34;;;;;;;5.20;2.02;;;;;;;10.88;51.50;99391.09;1745587;79;25812;-59
2021/05/06 07:26:02;;;;;;;6.25;2.85;;;;;;;11.06;50.74;99399.81;1745759;79;26224;-60
2021/05/06 07:28:38;;;;;;;5.73;2.43;;;;;;;11.20;51.49;99399.52;1744682;79;26167;-59
2021/05/06 07:31:09;;;;;;;5.50;2.70;;;;;;;11.54;53.32;99406.48;1749009;79;26155;-59
2021/05/06 07:33:36;;;;;;;4.90;2.10;;;;;;;11.72;48.29;99392.72;1748555;79;25645;-58
2021/05/06 07:36:04;;;;;;;5.87;2.35;;;;;;;11.78;50.26;99406.25;1747600;79;25640;-58
2021/05/06 07:38:32;;;;;;;5.22;2.12;;;;;;;11.88;49.07;99415.86;1744431;79;26123;-59
2021/05/06 07:41:00;;;;;;;6.47;2.00;;;;;;;11.89;48.07;99417.45;1744702;79;25760;-58
2021/05/06 07:43:30;;;;;;;4.22;2.10;;;;;;;11.94;47.39;99421.31;1746555;79;25633;-59
2021/05/06 07:46:00;;;;;;;7.45;2.17;;;;;;;12.09;48.88;99421.98;1743069;79;25680;-59
2021/05/06 07:48:27;;;;;;;8.10;2.20;;;;;;;12.16;45.25;99418.70;1744817;79;26475;-58
2021/05/06 07:50:55;;;;;;;5.92;2.05;;;;;;;11.93;43.39;99420.50;1748034;79;25608;-59
2021/05/06 07:53:34;;;;;;;7.47;2.47;;;;;;;11.96;44.82;99429.89;1744007;79;25712;-59
2021/05/06 07:55:56;;;;;;;5.00;1.80;;;;;;;12.17;44.66;99428.97;1747872;79;25695;-59
2021/05/06 07:58:22;;;;;;;4.47;2.15;;;;;;;12.27;44.76;99427.16;1747008;79;26485;-59
2021/05/06 08:00:49;;;;;;;8.05;2.17;;;;;;;12.49;46.86;99427.23;1746218;79;25639;-59
2021/05/06 08:03:15;;;;;;;7.30;1.92;;;;;;;12.74;43.24;99440.74;1745704;80;25614;-60
2021/05/06 08:05:42;;;;;;;6.65;2.42;;;;;;;12.59;42.75;99458.52;1737895;80;25730;-58
2021/05/06 08:08:08;;;;;;;5.37;1.90;;;;;;;12.50;41.56;99481.14;1743032;80;25680;-59
2021/05/06 08:10:35;;;;;;;6.87;2.30;;;;;;;12.44;40.80;99461.37;1742086;80;26428;-62
2021/05/06 08:13:02;;;;;;;5.17;2.37;;;;;;;12.40;40.01;99444.98;1741259;80;26314;-59
2021/05/06 08:15:31;;;;;;;6.28;2.22;;;;;;;12.37;42.78;99461.94;1744030;80;25476;-58
2021/05/06 08:17:57;;;;;;;5.05;1.75;;;;;;;12.43;42.93;99448.92;1741869;80;25710;-58
2021/05/06 08:20:25;;;;;;;3.87;2.15;;;;;;;12.55;43.84;99451.64;1738989;80;26500;-58
2021/05/06 08:22:51;;;;;;;3.90;2.00;;;;;;;12.58;42.21;99454.22;1739882;80;25670;-58
2021/05/06 08:25:23;;;;;;;14.83;2.95;;;;;;;12.63;38.55;99449.36;1741339;80;25705;-58
2021/05/06 08:27:50;;;;;;;5.33;1.98;;;;;;;12.53;38.72;99460.66;1748735;80;25738;-59
2021/05/06 08:30:20;;;;;;;5.80;2.17;;;;;;;12.42;41.51;99468.48;1743400;80;25783;-59
2021/05/06 08:32:47;;;;;;;;;;;;;;;12.47;42.47;99468.83;1744185;80;25677;-60
2021/05/06 08:35:14;;;;;;;8.23;2.17;;;;;;;12.44;41.40;99474.35;1742927;80;25651;-59
2021/05/06 08:37:40;;;;;;;7.17;2.12;;;;;;;12.35;40.33;99468.84;1745032;80;25686;-59
2021/05/06 08:40:08;;;;;;;5.12;2.20;;;;;;;12.42;41.31;99466.34;1743726;80;25732;-58
2021/05/06 08:42:36;;;;;;;3.83;2.12;;;;;;;12.79;41.95;99462.99;1743480;80;25714;-58
2021/05/06 08:45:04;;;;;;;6.28;2.50;;;;;;;13.20;43.05;99467.03;1742588;80;25643;-58
2021/05/06 08:47:32;;;;;;;5.37;2.27;;;;;;;13.60;41.89;99468.88;1742226;80;25690;-58
2021/05/06 08:50:00;;;;;;;8.18;2.98;;;;;;;13.54;41.62;99463.49;1742989;80;26625;-58
2021/05/06 08:52:28;;;;;;;8.40;2.17;;;;;;;13.61;41.65;99452.80;1743438;80;25584;-58
2021/05/06 08:54:57;;;;;;;5.20;1.95;;;;;;;13.41;40.92;99456.75;1740370;80;25838;-58
2021/05/06 08:57:27;;;;;;;6.08;1.70;;;;;;;13.53;39.44;99459.19;1742172;80;26100;-59
2021/05/06 08:59:54;;;;;;;6.20;2.17;;;;;;;13.77;40.95;99473.98;1744207;80;25632;-59
2021/05/06 09:02:22;;;;;;;4.92;2.10;;;;;;;13.91;41.06;99460.51;1743958;80;25612;-58
2021/05/06 09:04:48;;;;;;;4.65;1.95;;;;;;;14.01;40.74;99453.98;1747572;80;25582;-57
2021/05/06 09:07:15;;;;;;;3.83;1.82;;;;;;;14.18;41.55;99467.78;1743293;80;26892;-58
2021/05/06 09:09:50;;;;;;;5.33;2.05;;;;;;;14.50;39.55;99466.92;1743013;80;25668;-62
2021/05/06 09:12:18;;;;;;;5.45;1.85;;;;;;;14.75;39.55;99469.64;1742286;80;26202;-62
2021/05/06 09:14:48;;;;;;;6.62;2.20;;;;;;;14.77;37.43;99482.89;1724315;80;26118;-63
2021/05/06 09:17:28;;;;;;;3.60;1.90;;;;;;;14.74;38.22;99478.97;1743748;80;25628;-63
2021/05/06 09:20:17;;;;;;;5.15;1.85;;;;;;;14.71;36.60;99481.58;1742288;80;26241;-61
2021/05/06 09:22:50;;;;;;;5.28;1.90;;;;;;;14.84;37.91;99480.31;1744618;80;25988;-62
2021/05/06 09:25:36;;;;;;;5.92;1.60;;;;;;;14.90;35.73;99476.17;1744480;79;26311;-63
2021/05/06 09:28:19;;;;;;;6.05;2.10;;;;;;;14.79;37.20;99466.20;1741560;80;25585;-63
2021/05/06 09:30:58;;;;;;;8.75;1.95;;;;;;;15.15;39.32;99473.14;1743410;80;25643;-62
2021/05/06 09:33:39;;;;;;;7.08;2.05;;;;;;;15.77;38.14;99465.55;1747187;80;25775;-62
2021/05/06 09:36:25;;;;;;;4.47;1.87;;;;;;;16.03;37.53;99472.38;1737042;80;25635;-62
2021/05/06 09:38:55;;;;;;;4.08;1.80;;;;;;;16.01;38.58;99469.83;1735217;80;25612;-63
2021/05/06 09:41:33;;;;;;;6.50;1.77;;;;;;;16.04;36.53;99467.73;1740121;80;25586;-62
2021/05/06 09:44:13;;;;;;;3.77;1.95;;;;;;;16.02;36.94;99483.10;1749715;80;25666;-62
2021/05/06 09:46:43;;;;;;;6.37;2.02;;;;;;;16.04;32.71;99476.70;1740134;80;25773;-62
2021/05/06 09:49:15;;;;;;;7.20;1.87;;;;;;;15.84;34.49;99481.44;1736817;80;26005;-62
2021/05/06 09:51:48;;;;;;;4.08;1.95;;;;;;;15.39;34.80;99488.97;1737668;80;25632;-62
2021/05/06 09:54:31;;;;;;;7.67;2.00;;;;;;;15.20;36.23;99486.47;1748376;79;25573;-62
2021/05/06 09:57:02;;;;;;;5.95;1.85;;;;;;;14.92;35.31;99483.41;1747209;79;25579;-62
2021/05/06 09:59:35;;;;;;;2.87;1.70;;;;;;;14.64;34.43;99493.69;1746614;79;26440;-62
2021/05/06 10:02:13;;;;;;;4.75;1.92;;;;;;;14.24;35.15;99478.39;1743138;79;25693;-61
2021/05/06 10:04:44;;;;;;;7.67;1.85;;;;;;;14.24;35.03;99485.19;1750917;80;25651;-61
2021/05/06 10:07:25;;;;;;;4.47;1.75;;;;;;;14.49;35.73;99476.22;1770106;79;25748;-62
2021/05/06 10:10:00;;;;;;;5.62;1.77;;;;;;;14.75;35.02;99478.38;1734736;80;26356;-62
2021/05/06 10:12:32;;;;;;;6.70;2.10;;;;;;;15.18;36.72;99488.77;1766251;79;26414;-62
2021/05/06 10:15:00;;;;;;;11.08;1.98;;;;;;;15.75;36.33;99492.33;1767964;79;25787;-62
2021/05/06 10:17:29;;;;;;;5.72;1.80;;;;;;;16.45;38.01;99477.50;1773368;79;25620;-62
2021/05/06 10:19:58;;;;;;;5.33;2.12;;;;;;;17.11;36.98;99473.89;1769259;79;25630;-62
2021/05/06 10:22:27;;;;;;;7.03;1.67;;;;;;;17.53;34.56;99479.59;1746791;80;25612;-63
2021/05/06 10:24:55;;;;;;;4.00;1.80;;;;;;;17.31;33.72;99479.95;1744128;80;25948;-62
2021/05/06 10:27:24;;;;;;;8.35;2.12;;;;;;;16.93;32.10;99483.82;1742770;80;25641;-62
2021/05/06 10:29:56;;;;;;;5.70;1.90;;;;;;;16.52;34.18;99479.55;1743570;80;25650;-62
2021/05/06 10:32:21;;;;;;;5.00;2.10;;;;;;;16.40;33.46;99477.83;1742112;80;25730;-63
2021/05/06 10:34:54;;;;;;;4.97;2.60;;;;;;;16.56;33.27;99472.19;1746097;80;25752;-62
2021/05/06 10:37:28;;;;;;;4.42;1.77;;;;;;;16.48;32.98;99467.78;1748455;81;25713;-62
2021/05/06 10:39:56;;;;;;;6.25;1.85;;;;;;;16.42;34.32;99481.74;1801670;77;25563;-62
2021/05/06 10:42:33;;;;;;;4.53;1.80;;;;;;;16.43;32.99;99483.33;1801283;77;25664;-61
2021/05/06 10:45:29;;;;;;;4.47;1.72;;;;;;;16.67;32.46;99490.06;1692649;83;26035;-62
2021/05/06 10:47:56;;;;;;;5.40;1.80;;;;;;;16.80;32.36;99497.69;1742562;81;25692;-62
2021/05/06 10:50:41;;;;;;;3.27;1.90;;;;;;;16.62;32.13;99483.00;1742587;81;25704;-61
2021/05/06 10:53:28;;;;;;;8.73;2.12;;;;;;;17.02;31.34;99500.70;1828262;75;25647;-62
2021/05/06 10:55:56;;;;;;;3.77;1.95;;;;;;;16.80;27.25;99509.98;1802582;77;25963;-63
2021/05/06 10:58:30;;;;;;;6.78;2.02;;;;;;;16.61;29.45;99488.25;1800657;77;25838;-63
2021/05/06 11:01:09;;;;;;;4.92;2.17;;;;;;;16.50;30.03;99480.47;1805369;77;25624;-62
2021/05/06 11:03:37;;;;;;;3.98;1.72;;;;;;;16.62;31.22;99482.42;1801477;77;26349;-62
2021/05/06 11:06:05;;;;;;;6.15;2.08;;;;;;;16.64;29.51;99508.58;1803821;77;26335;-61
2021/05/06 11:08:35;;;;;;;5.78;1.90;;;;;;;16.15;29.20;99519.14;1796501;77;25700;-58
2021/05/06 11:11:10;;;;;;;5.20;1.62;;;;;;;16.05;29.10;99489.75;1803831;77;25696;-58
2021/05/06 11:14:05;;;;;;;3.83;1.80;;;;;;;16.03;30.92;99496.94;1797382;77;25760;-58
2021/05/06 11:16:35;;;;;;;3.50;1.87;;;;;;;15.71;30.20;99493.64;1799248;77;25587;-58
2021/05/06 11:19:02;;;;;;;;;;;;;;;15.22;30.09;99496.45;1802901;77;26036;-58
2021/05/06 11:21:36;;;;;;;5.62;2.00;;;;;;;14.87;30.47;99489.13;1800624;77;25690;-58
2021/05/06 11:24:25;;;;;;;5.60;1.90;;;;;;;14.57;29.63;99503.25;1796594;77;25879;-58
2021/05/06 11:27:10;;;;;;;2.83;1.72;;;;;;;14.44;31.00;99497.70;1794985;77;25567;-58
2021/05/06 11:29:39;;;;;;;4.35;1.70;;;;;;;14.11;31.87;99480.41;1796562;77;25584;-58
2021/05/06 11:32:23;;;;;;;;;;;;;;;14.10;32.68;99491.09;1812355;77;25635;-58
2021/05/06 11:34:53;;;;;;;6.22;2.52;;;;;;;14.26;32.74;99487.77;1791478;77;25664;-57
2021/05/06 11:37:26;;;;;;;5.22;2.00;;;;;;;14.73;31.49;99488.27;1803617;77;25731;-58
2021/05/06 11:40:07;;;;;;;4.20;2.25;;;;;;;14.86;31.41;99482.68;1798863;77;25682;-58
2021/05/06 11:42:39;;;;;;;8.05;2.05;;;;;;;14.73;31.20;99499.15;1803218;77;25627;-58
2021/05/06 11:45:22;;;;;;;3.75;1.85;;;;;;;14.42;30.53;99500.55;1800876;77;25626;-59
2021/05/06 11:47:51;;;;;;;2.12;1.45;;;;;;;14.17;31.10;99482.52;1807448;77;25613;-58
2021/05/06 11:50:26;;;;;;;5.00;1.80;;;;;;;14.04;32.87;99489.19;1799253;77;25766;-61
2021/05/06 11:52:55;;;;;;;3.70;1.98;;;;;;;14.03;32.90;99486.27;1760153;79;25661;-62
2021/05/06 11:55:42;;;;;;;5.00;1.85;;;;;;;13.99;30.86;99482.08;1759328;79;29828;-62
2021/05/06 11:58:28;;;;;;;4.08;2.00;;;;;;;14.51;32.28;99492.42;1877303;75;35216;-62
2021/05/06 12:00:56;;;;;;;4.90;2.12;;;;;;;14.77;30.86;99484.25;1852749;76;25871;-62
2021/05/06 12:03:35;;;;;;;2.27;1.95;;;;;;;14.74;29.27;99482.23;1846873;76;25996;-62
2021/05/06 12:06:02;;;;;;;6.58;2.22;;;;;;;14.55;30.59;99489.77;1845079;76;25565;-62
2021/05/06 12:08:45;;;;;;;4.28;2.08;;;;;;;14.59;29.63;99478.41;1848774;76;25623;-62
2021/05/06 12:11:13;;;;;;;2.42;1.47;;;;;;;14.40;30.85;99468.25;1851348;76;25628;-63
2021/05/06 12:13:43;;;;;;;3.67;1.92;;;;;;;14.36;31.81;99468.76;1847318;76;25645;-62
2021/05/06 12:16:20;;;;;;;;;;;;;;;14.19;30.15;99478.86;1850355;76;26597;-62
2021/05/06 12:19:11;;;;;;;5.22;1.92;;;;;;;14.02;31.72;99465.64;1843412;76;25678;-62
2021/05/06 12:21:54;;;;;;;4.60;2.17;;;;;;;14.25;32.14;99479.95;1842086;76;26315;-61
2021/05/06 12:24:45;;;;;;;3.75;2.12;;;;;;;14.55;31.99;99478.31;1847963;76;25701;-61
2021/05/06 12:27:20;;;;;;;3.98;2.02;;;;;;;14.46;31.73;99480.45;1848550;76;25601;-62
2021/05/06 12:30:01;;;;;;;4.03;2.40;;;;;;;14.75;31.58;99464.19;1848333;76;27004;-62
2021/05/06 12:32:32;;;;;;;6.05;2.08;;;;;;;14.75;31.21;99478.38;1850363;76;25675;-63
2021/05/06 12:35:01;;;;;;;3.77;2.02;;;;;;;14.81;32.38;99474.22;1848686;76;25618;-62
2021/05/06 12:37:32;;;;;;;4.33;1.72;;;;;;;15.06;31.86;99469.86;1848730;76;25579;-63
2021/05/06 12:40:03;;;;;;;8.95;1.90;;;;;;;15.19;31.25;99468.57;1849505;76;25684;-62
2021/05/06 12:42:34;;;;;;;3.62;2.02;;;;;;;15.40;31.61;99472.26;1846893;76;27082;-63
2021/05/06 12:45:04;;;;;;;7.42;2.10;;;;;;;15.71;30.48;99454.11;1851157;76;25614;-63
2021/05/06 12:47:35;;;;;;;5.70;1.82;;;;;;;16.13;30.32;99447.02;1848912;76;25934;-62
2021/05/06 12:50:20;;;;;;;5.60;1.80;;;;;;;16.05;27.96;99447.47;1849765;76;32640;-62
2021/05/06 12:52:49;;;;;;;4.65;2.08;;;;;;;15.79;28.96;99453.70;1846299;76;25566;-63
2021/05/06 12:55:31;;;;;;;6.60;2.20;;;;;;;15.63;28.67;99454.58;1777587;79;25711;-62
2021/05/06 12:58:15;;;;;;;5.25;1.95;;;;;;;15.35;28.66;99459.52;1780064;78;25648;-62
2021/05/06 13:00:56;;;;;;;3.27;1.80;;;;;;;15.10;28.66;99453.00;1786163;79;25676;-61
2021/05/06 13:03:40;;;;;;;5.92;1.80;;;;;;;14.77;29.37;99457.61;1787914;79;25968;-61
2021/05/06 13:06:17;;;;;;;6.78;2.02;;;;;;;14.53;29.63;99460.19;1787206;79;25644;-61
2021/05/06 13:08:47;;;;;;;3.25;1.70;;;;;;;14.24;29.58;99450.61;1786152;79;26424;-61
2021/05/06 13:11:18;;;;;;;4.42;2.15;;;;;;;14.07;30.15;99453.72;1785735;79;26479;-61
2021/05/06 13:13:50;;;;;;;3.67;2.30;;;;;;;13.93;31.39;99446.02;1787620;79;25664;-61
2021/05/06 13:16:51;;;;;;;6.42;1.90;;;;;;;13.75;30.83;99454.50;1785506;79;25667;-61
2021/05/06 13:19:20;;;;;;;4.50;2.27;;;;;;;13.55;32.00;99456.36;1781048;79;26326;-61
2021/05/06 13:22:03;;;;;;;3.67;1.80;;;;;;;13.41;32.40;99451.89;1787312;79;25872;-61
2021/05/06 13:24:44;;;;;;;5.90;1.92;;;;;;;13.49;33.55;99444.16;1785454;79;25633;-61
2021/05/06 13:27:22;;;;;;;4.80;1.98;;;;;;;13.55;33.55;99440.60;1787065;79;25635;-61
2021/05/06 13:30:03;;;;;;;4.67;2.52;;;;;;;13.51;33.52;99436.44;1787413;79;25603;-61
2021/05/06 13:32:40;;;;;;;5.42;2.35;;;;;;;13.39;33.72;99433.80;1787007;79;25608;-62
2021/05/06 13:35:16;;;;;;;7.50;2.60;;;;;;;13.25;33.43;99436.33;1785783;79;25876;-60
2021/05/06 13:37:46;;;;;;;2.95;2.20;;;;;;;13.08;34.13;99456.44;1746310;79;25672;-62
2021/05/06 13:40:13;;;;;;;6.08;2.87;;;;;;;12.91;34.60;99456.73;1769642;79;26082;-62
2021/05/06 13:42:40;;;;;;;3.30;2.62;;;;;;;12.73;35.86;99460.28;1780617;79;26535;-63
2021/05/06 13:45:11;;;;;;;3.95;2.33;;;;;;;12.51;36.71;99467.81;1787078;79;26306;-63
2021/05/06 13:47:37;;;;;;;4.10;2.08;;;;;;;12.32;38.08;99479.22;1785481;79;26026;-62
2021/05/06 13:50:06;;;;;;;5.72;2.20;;;;;;;12.14;38.28;99475.19;1787358;79;25651;-62
2021/05/06 13:52:32;;;;;;;2.65;2.45;;;;;;;12.06;38.33;99467.38;1786371;79;25710;-62
2021/05/06 13:54:59;;;;;;;4.15;2.42;;;;;;;11.92;38.61;99473.14;1786804;79;26125;-62
2021/05/06 13:57:25;;;;;;;6.08;2.47;;;;;;;11.86;38.97;99479.86;1761242;79;25615;-60
2021/05/06 13:59:52;;;;;;;5.62;2.30;;;;;;;11.79;38.87;99498.60;1772971;80;25695;-61
2021/05/06 14:02:20;;;;;;;4.58;2.10;;;;;;;11.69;40.55;99494.97;1763962;80;25596;-62
2021/05/06 14:04:48;;;;;;;2.20;2.00;;;;;;;11.68;41.28;99490.67;1761634;80;26284;-61
2021/05/06 14:07:15;;;;;;;2.95;2.35;;;;;;;11.74;41.66;99501.53;1757871;80;25754;-62
2021/05/06 14:09:42;;;;;;;5.97;2.47;;;;;;;11.74;42.13;99507.73;1760569;80;25660;-62
2021/05/06 14:12:09;;;;;;;3.87;2.37;;;;;;;11.85;42.34;99491.04;1751921;80;28038;-63
2021/05/06 14:14:36;;;;;;;6.30;2.00;;;;;;;12.14;42.22;99486.81;1756196;80;25990;-62
2021/05/06 14:17:03;;;;;;;5.37;2.50;;;;;;;12.37;41.40;99477.43;1753207;80;25677;-58
2021/05/06 14:19:30;;;;;;;3.92;1.90;;;;;;;12.62;40.41;99465.41;1757456;80;25554;-58
2021/05/06 14:21:57;;;;;;;4.12;2.02;;;;;;;12.79;39.12;99466.28;1756668;80;25668;-58
2021/05/06 14:24:23;;;;;;;3.62;1.72;;;;;;;12.90;39.39;99463.28;1755140;80;26027;-57
2021/05/06 14:26:50;;;;;;;2.60;1.52;;;;;;;13.12;38.27;99469.33;1752980;80;25706;-58
2021/05/06 14:29:19;;;;;;;11.12;2.25;;;;;;;13.24;38.26;99463.25;1753999;80;25639;-58
2021/05/06 14:31:46;;;;;;;3.37;2.00;;;;;;;13.42;37.50;99459.70;1755002;80;25598;-58
2021/05/06 14:34:13;;;;;;;2.50;1.92;;;;;;;13.60;36.85;99464.25;1754845;80;25640;-58
2021/05/06 14:36:40;;;;;;;6.72;2.40;;;;;;;13.76;37.34;99462.89;1751762;80;25932;-58
2021/05/06 14:39:08;;;;;;;3.22;2.00;;;;;;;13.86;37.22;99452.06;1755600;80;25715;-57
2021/05/06 14:41:35;;;;;;;3.08;1.90;;;;;;;13.95;37.01;99445.87;1754685;80;25693;-59
2021/05/06 14:44:03;;;;;;;2.47;1.47;;;;;;;14.03;37.97;99447.39;1754854;80;25642;-59
2021/05/06 14:46:30;;;;;;;3.67;1.87;;;;;;;14.14;37.96;99443.00;1752950;80;25762;-58
2021/05/06 14:48:57;;;;;;;4.08;1.72;;;;;;;14.05;36.15;99445.91;1755775;80;25754;-58
2021/05/06 14:51:25;;;;;;;2.50;1.90;;;;;;;13.92;36.05;99444.42;1755443;80;25669;-58
2021/05/06 14:53:51;;;;;;;3.70;1.90;;;;;;;13.75;35.86;99446.93;1754309;80;25659;-58
2021/05/06 14:56:21;;;;;;;5.47;2.10;;;;;;;13.43;35.72;99434.67;1756606;80;26217;-59
2021/05/06 14:58:48;;;;;;;3.40;2.30;;;;;;;13.33;36.08;99438.70;1770151;80;25697;-59
2021/05/06 15:01:15;;;;;;;3.92;2.17;;;;;;;13.26;35.75;99431.68;1771995;80;26057;-60
2021/05/06 15:03:43;;;;;;;4.53;1.92;;;;;;;13.10;35.72;99433.59;1774143;79;25859;-58
2021/05/06 15:06:10;;;;;;;6.15;1.90;;;;;;;12.95;36.58;99433.19;1779199;79;26384;-58
2021/05/06 15:08:42;;;;;;;3.42;2.08;;;;;;;12.91;36.44;99435.59;1773802;80;26466;-59
2021/05/06 15:11:05;;;;;;;3.58;1.92;;;;;;;12.98;36.59;99435.79;1773813;79;25702;-59
2021/05/06 15:13:32;;;;;;;3.20;2.10;;;;;;;13.11;36.67;99421.03;1778739;79;25968;-58
2021/05/06 15:15:58;;;;;;;4.42;2.22;;;;;;;13.21;36.55;99423.79;1771916;80;25751;-58
2021/05/06 15:18:26;;;;;;;2.85;1.85;;;;;;;13.31;37.46;99423.86;1779070;79;25847;-58
2021/05/06 15:20:53;;;;;;;1.70;1.60;;;;;;;13.51;37.60;99420.72;1748867;80;25692;-59
2021/05/06 15:23:21;;;;;;;4.22;2.08;;;;;;;13.68;37.03;99416.29;1776519;79;25668;-58
2021/05/06 15:25:48;;;;;;;4.25;2.00;;;;;;;13.88;37.19;99413.66;1782483;79;25699;-59
2021/05/06 15:28:15;;;;;;;5.50;2.10;;;;;;;13.99;36.32;99416.05;1787381;79;25614;-59
2021/05/06 15:30:42;;;;;;;3.70;1.90;;;;;;;13.98;35.34;99413.13;1786518;79;26372;-59
2021/05/06 15:33:09;;;;;;;4.17;2.12;;;;;;;13.92;35.10;99412.59;1788422;79;25671;-58
2021/05/06 15:35:35;;;;;;;4.12;2.10;;;;;;;13.81;33.76;99422.44;1787022;79;25619;-60
2021/05/06 15:38:03;;;;;;;2.10;1.85;;;;;;;13.59;33.37;99409.67;1786527;79;25700;-59
2021/05/06 15:40:31;;;;;;;4.92;2.10;;;;;;;13.42;33.85;99416.23;1783880;79;25618;-58
2021/05/06 15:42:57;;;;;;;2.05;1.85;;;;;;;13.26;33.77;99415.39;1759364;79;25723;-59
2021/05/06 15:45:25;;;;;;;3.80;2.33;;;;;;;13.13;34.10;99411.16;1785920;79;25708;-58
2021/05/06 15:47:51;;;;;;;3.45;2.00;;;;;;;13.00;34.43;99418.01;1785716;79;25664;-58
2021/05/06 15:50:19;;;;;;;3.27;2.40;;;;;;;12.91;34.16;99407.88;1786890;79;25933;-58
2021/05/06 15:52:48;;;;;;;2.85;2.12;;;;;;;12.88;34.91;99409.34;1784200;79;26196;-58
2021/05/06 15:55:15;;;;;;;2.27;2.05;;;;;;;12.87;34.95;99410.50;1786385;79;25679;-57
2021/05/06 15:57:43;;;;;;;2.67;1.80;;;;;;;12.85;35.11;99401.89;1787796;79;25805;-59
2021/05/06 16:00:14;;;;;;;2.15;1.95;;;;;;;12.84;35.18;99398.97;1787919;79;25678;-59
2021/05/06 16:02:44;;;;;;;2.52;2.02;;;;;;;12.87;34.50;99407.78;1785657;79;25907;-59
2021/05/06 16:05:20;;;;;;;4.20;2.30;;;;;;;12.88;33.98;99401.20;1784686;79;26156;-59
2021/05/06 16:07:41;;;;;;;3.35;1.95;;;;;;;12.86;33.58;99393.98;1782473;79;25591;-58
2021/05/06 16:10:10;;;;;;;3.95;2.20;;;;;;;12.86;34.81;99385.84;1785801;79;25633;-58
2021/05/06 16:12:37;;;;;;;3.12;1.80;;;;;;;12.83;33.49;99381.09;1761352;79;25668;-58
2021/05/06 16:15:05;;;;;;;3.52;1.98;;;;;;;12.73;34.07;99382.17;1757006;79;25728;-59
2021/05/06 16:17:32;;;;;;;2.47;1.90;;;;;;;12.63;34.27;99389.68;1757227;79;25710;-59
2021/05/06 16:20:07;;;;;;;6.90;2.25;;;;;;;12.53;34.37;99386.06;1784002;79;25627;-58
2021/05/06 16:22:43;;;;;;;2.75;2.20;;;;;;;12.49;34.86;99390.61;1831917;76;35139;-59
2021/05/06 16:25:13;;;;;;;3.30;1.77;;;;;;;12.35;35.45;99386.14;1795488;77;25586;-60
2021/05/06 16:27:41;;;;;;;2.65;1.85;;;;;;;12.26;35.50;99389.77;1801489;77;26606;-59
2021/05/06 16:30:11;;;;;;;3.83;1.90;;;;;;;12.22;35.74;99386.14;1795948;77;25690;-59
2021/05/06 16:32:39;;;;;;;2.77;2.30;;;;;;;12.15;35.71;99397.56;1808245;77;25559;-59
2021/05/06 16:35:11;;;;;;;6.00;3.17;;;;;;;12.09;36.13;99385.97;1799498;77;25539;-59
2021/05/06 16:40:16;;;;;;;5.17;2.90;;;;;;;11.95;36.47;99400.66;1805611;77;25748;-60
2021/05/06 16:43:09;;;;;;;5.62;2.98;;;;;;;11.93;36.82;99404.81;1788882;77;25773;-60
2021/05/06 16:45:15;;;;;;;4.17;2.15;;;;;;;11.87;36.89;99431.33;1799272;77;25657;-60
2021/05/06 16:47:42;;;;;;;4.55;2.58;;;;;;;11.78;37.58;99426.02;1795578;77;25919;-60
2021/05/06 16:50:10;;;;;;;5.22;3.15;;;;;;;11.66;38.83;99429.27;1801973;77;25601;-59
2021/05/06 16:52:37;;;;;;;5.63;3.23;;;;;;;11.56;40.41;99427.78;1783431;77;26573;-59
2021/05/06 16:55:06;;;;;;;6.40;3.08;;;;;;;11.43;41.33;99405.33;1802047;77;25665;-61
2021/05/06 16:57:33;;;;;;;6.47;3.17;;;;;;;11.25;42.49;99407.42;1798672;77;26305;-60
2021/05/06 17:00:01;;;;;;;5.33;3.05;;;;;;;11.13;43.72;99413.59;1798151;77;25596;-60
2021/05/06 17:02:28;;;;;;;4.37;3.72;;;;;;;10.96;44.41;99410.48;1798310;77;25634;-60
2021/05/06 17:04:54;;;;;;;5.95;3.17;;;;;;;10.84;45.45;99409.09;1749914;80;26062;-61
2021/05/06 17:07:21;;;;;;;5.40;3.40;;;;;;;10.75;45.35;99414.58;1738975;80;25596;-61
2021/05/06 17:09:48;;;;;;;5.33;3.90;;;;;;;10.60;45.88;99417.31;1749653;80;25565;-62
2021/05/06 17:12:15;;;;;;;10.85;3.95;;;;;;;10.42;46.35;99427.48;1737767;80;25785;-61
2021/05/06 17:14:42;;;;;;;5.22;3.87;;;;;;;10.32;46.99;99435.98;1738541;80;26291;-61
2021/05/06 17:17:09;;;;;;;7.50;4.03;;;;;;;10.21;47.16;99436.09;1734258;80;25773;-62
2021/05/06 17:19:37;;;;;;;5.97;4.40;;;;;;;10.13;47.73;99437.73;1737234;80;25654;-61
2021/05/06 17:22:04;;;;;;;5.78;4.30;;;;;;;10.06;48.47;99440.95;1740180;80;25574;-61
2021/05/06 17:24:31;;;;;;;4.45;3.90;;;;;;;10.02;48.32;99437.30;1731142;78;26024;-62
2021/05/06 17:26:59;;;;;;;5.87;4.10;;;;;;;10.00;48.62;99445.52;1737330;80;25908;-62
2021/05/06 17:29:26;;;;;;;5.70;3.67;;;;;;;9.96;48.90;99440.51;1733522;80;25721;-61
2021/05/06 17:31:53;;;;;;;6.78;3.75;;;;;;;9.90;49.09;99431.23;1735307;80;26282;-61
2021/05/06 17:34:21;;;;;;;4.65;4.10;;;;;;;9.91;48.94;99440.94;1737641;80;25614;-61
2021/05/06 17:36:48;;;;;;;6.00;4.20;;;;;;;9.87;49.19;99425.70;1739294;80;25721;-61
2021/05/06 17:39:17;;;;;;;8.03;4.00;;;;;;;9.84;49.45;99428.50;1737421;80;26486;-61
2021/05/06 17:41:43;;;;;;;7.45;4.25;;;;;;;9.80;49.54;99430.25;1743901;80;25705;-61